Allenton, MO (63001)

7:14 AM CDT on September 29, 2016 (GMT -0500)
Legends - Palisades | | Change Station

Elev 700 ft 38.49 °N, 90.64 °W | Updated 4 minutes ago

Clear
Clear
53.2 °F
Feels Like 53.2 °F
N
4.0
Wind Variable Wind from NW
Gusts 10.0 mph

Today
High -- | Low -- °F
--% Chance of Precip.
Yesterday
High -- | Low -- °F
Precip. -- in
Pressure 30.17 in
Visibility 10.0 miles
Clouds Clear
Dew Point 49 °F
Humidity 85%
Rainfall 0.00 in
Snow Depth Not available.
6:57 AM 6:47 PM
Waning Crescent, 2% visible
METAR KSUS 291154Z 31007KT 10SM CLR 12/10 A3017 RMK AO2 SLP215 T01170100 10133 20117 53011
Pressure 30.17 in
Visibility 10.0 miles
Clouds Clear
Dew Point 49 °F
Humidity 85%
Rainfall 0.00 in
Snow Depth Not available.
6:57 AM 6:47 PM
Waning Crescent, 2% visible
METAR KSUS 291154Z 31007KT 10SM CLR 12/10 A3017 RMK AO2 SLP215 T01170100 10133 20117 53011

10-Day Weather Forecast

Almanac

Astronomy

Sep. 29, 2016 Rise Set
Actual Time
Civil Twilight
Nautical Twilight
Astronomical Twilight
Moon
Length of Visible Light
Length of Day
Tomorrow will be .
, % of the Moon is Illuminated

Today's Extremes

State Highs State Lows

Community

WunderPhotos

Upload Photos

1,942,466 photos uploaded!

WunderBlog® & News

Nearby

Air Quality

  Air Quality AQ Index Pollutant
Not available.

Snow Depth

Station Depth Elevation

Earthquake Activity

City Distance Mag. Time & Date
Minimum magnitude displayed is 2.5.

Coastal Water Temperatures

Place Temperature

Stations

Nearby Weather Stations

Station Location Temp. Windchill Dew Point Humidity Wind Precip. Elev Updated Type
                   

Watches & Warnings

There are currently no watches in effect.